sensor_id;sensor_type;location;lat;lon;timestamp;P1;durP1;ratioP1;P2;durP2;ratioP2
54561;SDS011;69047;53.358;-1.486;2023-05-10T00:01:14;4.85;;;1.98;;
54561;SDS011;69047;53.358;-1.486;2023-05-10T00:03:39;9.55;;;2.35;;
54561;SDS011;69047;53.358;-1.486;2023-05-10T00:06:05;2.67;;;1.42;;
54561;SDS011;69047;53.358;-1.486;2023-05-10T00:08:31;8.68;;;1.98;;
54561;SDS011;69047;53.358;-1.486;2023-05-10T00:10:56;5.05;;;1.98;;
54561;SDS011;69047;53.358;-1.486;2023-05-10T00:13:22;5.30;;;1.58;;
54561;SDS011;69047;53.358;-1.486;2023-05-10T00:15:47;6.88;;;1.85;;
54561;SDS011;69047;53.358;-1.486;2023-05-10T00:18:12;4.65;;;1.77;;
54561;SDS011;69047;53.358;-1.486;2023-05-10T00:20:38;6.47;;;1.80;;
54561;SDS011;69047;53.358;-1.486;2023-05-10T00:23:03;7.38;;;1.50;;
54561;SDS011;69047;53.358;-1.486;2023-05-10T00:25:28;5.10;;;1.60;;
54561;SDS011;69047;53.358;-1.486;2023-05-10T00:27:54;3.50;;;1.20;;
54561;SDS011;69047;53.358;-1.486;2023-05-10T00:30:22;5.45;;;1.38;;
54561;SDS011;69047;53.358;-1.486;2023-05-10T00:32:48;5.15;;;1.50;;
54561;SDS011;69047;53.358;-1.486;2023-05-10T00:35:14;3.65;;;1.35;;
54561;SDS011;69047;53.358;-1.486;2023-05-10T00:37:40;5.50;;;1.42;;
54561;SDS011;69047;53.358;-1.486;2023-05-10T00:40:06;7.50;;;1.52;;
54561;SDS011;69047;53.358;-1.486;2023-05-10T00:42:32;6.80;;;1.73;;
54561;SDS011;69047;53.358;-1.486;2023-05-10T00:44:57;4.93;;;1.45;;
54561;SDS011;69047;53.358;-1.486;2023-05-10T00:47:22;4.35;;;1.73;;
54561;SDS011;69047;53.358;-1.486;2023-05-10T00:49:48;5.20;;;1.40;;
54561;SDS011;69047;53.358;-1.486;2023-05-10T00:52:14;4.95;;;1.58;;
54561;SDS011;69047;53.358;-1.486;2023-05-10T00:54:40;4.40;;;1.33;;
54561;SDS011;69047;53.358;-1.486;2023-05-10T00:57:05;8.45;;;1.55;;
54561;SDS011;69047;53.358;-1.486;2023-05-10T00:59:30;5.90;;;1.48;;
54561;SDS011;69047;53.358;-1.486;2023-05-10T01:01:56;3.67;;;1.65;;
54561;SDS011;69047;53.358;-1.486;2023-05-10T01:04:22;5.07;;;1.33;;
54561;SDS011;69047;53.358;-1.486;2023-05-10T01:06:50;4.93;;;1.42;;
54561;SDS011;69047;53.358;-1.486;2023-05-10T01:09:16;5.10;;;1.52;;
54561;SDS011;69047;53.358;-1.486;2023-05-10T01:11:43;4.57;;;1.50;;
54561;SDS011;69047;53.358;-1.486;2023-05-10T01:14:08;5.88;;;1.65;;
54561;SDS011;69047;53.358;-1.486;2023-05-10T01:16:36;5.47;;;1.33;;
54561;SDS011;69047;53.358;-1.486;2023-05-10T01:19:03;3.72;;;1.30;;
54561;SDS011;69047;53.358;-1.486;2023-05-10T01:32:32;6.93;;;1.27;;
54561;SDS011;69047;53.358;-1.486;2023-05-10T01:37:59;3.45;;;1.33;;
54561;SDS011;69047;53.358;-1.486;2023-05-10T01:40:29;4.78;;;1.30;;
54561;SDS011;69047;53.358;-1.486;2023-05-10T01:43:01;4.85;;;1.48;;
54561;SDS011;69047;53.358;-1.486;2023-05-10T01:45:30;5.47;;;1.25;;
54561;SDS011;69047;53.358;-1.486;2023-05-10T01:48:11;4.32;;;1.40;;
54561;SDS011;69047;53.358;-1.486;2023-05-10T01:50:39;6.72;;;1.55;;
54561;SDS011;69047;53.358;-1.486;2023-05-10T01:53:08;4.05;;;1.10;;
54561;SDS011;69047;53.358;-1.486;2023-05-10T01:55:54;3.75;;;1.38;;
54561;SDS011;69047;53.358;-1.486;2023-05-10T01:58:22;5.25;;;1.70;;
54561;SDS011;69047;53.358;-1.486;2023-05-10T02:00:50;4.45;;;1.35;;
54561;SDS011;69047;53.358;-1.486;2023-05-10T02:03:17;3.20;;;1.08;;
54561;SDS011;69047;53.358;-1.486;2023-05-10T02:05:44;5.00;;;1.35;;
54561;SDS011;69047;53.358;-1.486;2023-05-10T02:08:15;5.78;;;1.35;;
54561;SDS011;69047;53.358;-1.486;2023-05-10T02:10:42;3.45;;;1.27;;
54561;SDS011;69047;53.358;-1.486;2023-05-10T02:13:11;5.32;;;1.42;;
54561;SDS011;69047;53.358;-1.486;2023-05-10T02:15:39;4.18;;;1.40;;
54561;SDS011;69047;53.358;-1.486;2023-05-10T02:18:05;6.85;;;1.60;;
54561;SDS011;69047;53.358;-1.486;2023-05-10T02:20:31;4.32;;;1.38;;
54561;SDS011;69047;53.358;-1.486;2023-05-10T02:22:57;2.45;;;0.95;;
54561;SDS011;69047;53.358;-1.486;2023-05-10T02:25:24;8.50;;;1.40;;
54561;SDS011;69047;53.358;-1.486;2023-05-10T02:27:51;5.95;;;1.20;;
54561;SDS011;69047;53.358;-1.486;2023-05-10T02:30:20;5.38;;;1.50;;
54561;SDS011;69047;53.358;-1.486;2023-05-10T02:32:45;3.70;;;1.33;;
54561;SDS011;69047;53.358;-1.486;2023-05-10T02:35:12;3.13;;;1.27;;
54561;SDS011;69047;53.358;-1.486;2023-05-10T02:37:37;4.22;;;1.25;;
54561;SDS011;69047;53.358;-1.486;2023-05-10T02:40:04;5.25;;;1.10;;
54561;SDS011;69047;53.358;-1.486;2023-05-10T02:42:31;5.70;;;1.70;;
54561;SDS011;69047;53.358;-1.486;2023-05-10T02:45:01;4.53;;;1.45;;
54561;SDS011;69047;53.358;-1.486;2023-05-10T02:47:28;5.53;;;1.25;;
54561;SDS011;69047;53.358;-1.486;2023-05-10T02:49:54;4.03;;;1.00;;
54561;SDS011;69047;53.358;-1.486;2023-05-10T02:52:24;4.63;;;1.38;;
54561;SDS011;69047;53.358;-1.486;2023-05-10T02:54:52;1.55;;;0.85;;
54561;SDS011;69047;53.358;-1.486;2023-05-10T02:57:22;3.10;;;1.08;;
54561;SDS011;69047;53.358;-1.486;2023-05-10T02:59:51;4.93;;;1.27;;
54561;SDS011;69047;53.358;-1.486;2023-05-10T03:02:16;3.97;;;1.27;;
54561;SDS011;69047;53.358;-1.486;2023-05-10T03:04:42;9.02;;;1.55;;
54561;SDS011;69047;53.358;-1.486;2023-05-10T03:07:07;7.40;;;1.50;;
54561;SDS011;69047;53.358;-1.486;2023-05-10T03:09:33;5.68;;;1.40;;
54561;SDS011;69047;53.358;-1.486;2023-05-10T03:20:43;3.13;;;1.35;;
54561;SDS011;69047;53.358;-1.486;2023-05-10T03:25:42;2.28;;;1.15;;
54561;SDS011;69047;53.358;-1.486;2023-05-10T03:28:08;3.47;;;1.20;;
54561;SDS011;69047;53.358;-1.486;2023-05-10T03:30:34;3.70;;;1.20;;
54561;SDS011;69047;53.358;-1.486;2023-05-10T03:33:04;3.80;;;1.50;;
54561;SDS011;69047;53.358;-1.486;2023-05-10T03:35:30;3.25;;;1.30;;
54561;SDS011;69047;53.358;-1.486;2023-05-10T03:37:56;6.07;;;1.40;;
54561;SDS011;69047;53.358;-1.486;2023-05-10T03:40:21;4.63;;;1.20;;
54561;SDS011;69047;53.358;-1.486;2023-05-10T03:42:48;5.07;;;1.55;;
54561;SDS011;69047;53.358;-1.486;2023-05-10T03:45:13;2.42;;;1.13;;
54561;SDS011;69047;53.358;-1.486;2023-05-10T03:47:38;5.65;;;1.13;;
54561;SDS011;69047;53.358;-1.486;2023-05-10T03:50:04;2.63;;;1.30;;
54561;SDS011;69047;53.358;-1.486;2023-05-10T03:52:30;7.75;;;1.73;;
54561;SDS011;69047;53.358;-1.486;2023-05-10T03:54:55;5.28;;;1.40;;
54561;SDS011;69047;53.358;-1.486;2023-05-10T03:57:21;3.47;;;1.23;;
54561;SDS011;69047;53.358;-1.486;2023-05-10T03:59:46;1.70;;;1.00;;
54561;SDS011;69047;53.358;-1.486;2023-05-10T04:02:12;4.25;;;1.58;;
54561;SDS011;69047;53.358;-1.486;2023-05-10T04:04:37;3.10;;;1.35;;
54561;SDS011;69047;53.358;-1.486;2023-05-10T04:07:02;4.00;;;1.55;;
54561;SDS011;69047;53.358;-1.486;2023-05-10T04:09:28;4.07;;;1.42;;
54561;SDS011;69047;53.358;-1.486;2023-05-10T04:11:53;3.65;;;1.63;;
54561;SDS011;69047;53.358;-1.486;2023-05-10T04:14:19;2.60;;;1.10;;
54561;SDS011;69047;53.358;-1.486;2023-05-10T04:16:44;2.38;;;1.15;;
54561;SDS011;69047;53.358;-1.486;2023-05-10T04:19:09;3.33;;;1.10;;
54561;SDS011;69047;53.358;-1.486;2023-05-10T04:21:35;3.72;;;1.30;;
54561;SDS011;69047;53.358;-1.486;2023-05-10T04:24:01;4.50;;;1.17;;
54561;SDS011;69047;53.358;-1.486;2023-05-10T04:26:26;6.95;;;1.80;;
54561;SDS011;69047;53.358;-1.486;2023-05-10T04:28:52;4.82;;;1.20;;
54561;SDS011;69047;53.358;-1.486;2023-05-10T04:31:17;7.93;;;1.95;;
54561;SDS011;69047;53.358;-1.486;2023-05-10T04:33:42;5.22;;;1.33;;
54561;SDS011;69047;53.358;-1.486;2023-05-10T04:36:08;4.43;;;1.90;;
54561;SDS011;69047;53.358;-1.486;2023-05-10T04:38:33;3.85;;;1.67;;
54561;SDS011;69047;53.358;-1.486;2023-05-10T04:41:05;2.53;;;1.25;;
54561;SDS011;69047;53.358;-1.486;2023-05-10T04:43:31;6.03;;;1.55;;
54561;SDS011;69047;53.358;-1.486;2023-05-10T04:45:56;6.18;;;1.45;;
54561;SDS011;69047;53.358;-1.486;2023-05-10T04:48:22;5.47;;;1.75;;
54561;SDS011;69047;53.358;-1.486;2023-05-10T04:50:47;2.60;;;1.33;;
54561;SDS011;69047;53.358;-1.486;2023-05-10T04:53:13;3.15;;;1.15;;
54561;SDS011;69047;53.358;-1.486;2023-05-10T04:55:38;8.35;;;1.92;;
54561;SDS011;69047;53.358;-1.486;2023-05-10T04:58:03;5.03;;;1.73;;
54561;SDS011;69047;53.358;-1.486;2023-05-10T05:00:29;3.58;;;1.67;;
54561;SDS011;69047;53.358;-1.486;2023-05-10T05:02:54;2.70;;;1.25;;
54561;SDS011;69047;53.358;-1.486;2023-05-10T05:05:20;2.58;;;1.15;;
54561;SDS011;69047;53.358;-1.486;2023-05-10T05:07:45;2.90;;;1.73;;
54561;SDS011;69047;53.358;-1.486;2023-05-10T05:10:11;2.88;;;1.25;;
54561;SDS011;69047;53.358;-1.486;2023-05-10T05:12:36;6.40;;;2.25;;
54561;SDS011;69047;53.358;-1.486;2023-05-10T05:15:01;3.10;;;1.33;;
54561;SDS011;69047;53.358;-1.486;2023-05-10T05:17:27;4.38;;;1.63;;
54561;SDS011;69047;53.358;-1.486;2023-05-10T05:19:55;5.28;;;1.90;;
54561;SDS011;69047;53.358;-1.486;2023-05-10T05:22:20;3.13;;;1.67;;
54561;SDS011;69047;53.358;-1.486;2023-05-10T05:24:52;3.15;;;1.73;;
54561;SDS011;69047;53.358;-1.486;2023-05-10T05:27:17;4.80;;;1.60;;
54561;SDS011;69047;53.358;-1.486;2023-05-10T05:29:43;5.05;;;2.08;;
54561;SDS011;69047;53.358;-1.486;2023-05-10T05:32:08;2.60;;;1.60;;
54561;SDS011;69047;53.358;-1.486;2023-05-10T05:34:34;5.50;;;2.28;;
54561;SDS011;69047;53.358;-1.486;2023-05-10T05:36:59;4.45;;;1.52;;
54561;SDS011;69047;53.358;-1.486;2023-05-10T05:39:25;4.30;;;2.20;;
54561;SDS011;69047;53.358;-1.486;2023-05-10T05:41:50;2.53;;;1.75;;
54561;SDS011;69047;53.358;-1.486;2023-05-10T05:44:15;6.45;;;1.92;;
54561;SDS011;69047;53.358;-1.486;2023-05-10T05:46:41;4.55;;;1.90;;
54561;SDS011;69047;53.358;-1.486;2023-05-10T05:49:06;3.83;;;1.75;;
54561;SDS011;69047;53.358;-1.486;2023-05-10T05:51:32;3.95;;;1.80;;
54561;SDS011;69047;53.358;-1.486;2023-05-10T05:53:57;2.90;;;1.65;;
54561;SDS011;69047;53.358;-1.486;2023-05-10T05:56:22;4.32;;;1.92;;
54561;SDS011;69047;53.358;-1.486;2023-05-10T05:58:52;2.90;;;1.95;;
54561;SDS011;69047;53.358;-1.486;2023-05-10T06:01:17;2.90;;;1.90;;
54561;SDS011;69047;53.358;-1.486;2023-05-10T06:03:43;5.63;;;2.20;;
54561;SDS011;69047;53.358;-1.486;2023-05-10T06:06:08;3.97;;;2.20;;
54561;SDS011;69047;53.358;-1.486;2023-05-10T06:08:34;5.28;;;1.90;;
54561;SDS011;69047;53.358;-1.486;2023-05-10T06:11:01;4.63;;;1.98;;
54561;SDS011;69047;53.358;-1.486;2023-05-10T06:13:29;4.10;;;2.40;;
54561;SDS011;69047;53.358;-1.486;2023-05-10T06:15:57;6.75;;;2.45;;
54561;SDS011;69047;53.358;-1.486;2023-05-10T06:18:22;3.38;;;2.25;;
54561;SDS011;69047;53.358;-1.486;2023-05-10T06:20:49;4.72;;;2.42;;
54561;SDS011;69047;53.358;-1.486;2023-05-10T06:23:14;3.67;;;2.10;;
54561;SDS011;69047;53.358;-1.486;2023-05-10T06:25:40;3.17;;;1.88;;
54561;SDS011;69047;53.358;-1.486;2023-05-10T06:28:05;4.15;;;2.13;;
54561;SDS011;69047;53.358;-1.486;2023-05-10T06:30:30;4.90;;;2.05;;
54561;SDS011;69047;53.358;-1.486;2023-05-10T06:32:56;3.03;;;1.75;;
54561;SDS011;69047;53.358;-1.486;2023-05-10T06:35:21;6.13;;;2.40;;
54561;SDS011;69047;53.358;-1.486;2023-05-10T06:37:47;3.63;;;1.98;;
54561;SDS011;69047;53.358;-1.486;2023-05-10T06:40:13;2.88;;;1.88;;
54561;SDS011;69047;53.358;-1.486;2023-05-10T06:42:38;4.15;;;2.25;;
54561;SDS011;69047;53.358;-1.486;2023-05-10T06:45:04;4.00;;;2.08;;
54561;SDS011;69047;53.358;-1.486;2023-05-10T06:47:30;4.18;;;1.95;;
54561;SDS011;69047;53.358;-1.486;2023-05-10T06:49:56;4.68;;;2.22;;
54561;SDS011;69047;53.358;-1.486;2023-05-10T06:52:21;5.00;;;2.20;;
54561;SDS011;69047;53.358;-1.486;2023-05-10T06:54:47;3.30;;;2.08;;
54561;SDS011;69047;53.358;-1.486;2023-05-10T06:57:12;4.75;;;2.20;;
54561;SDS011;69047;53.358;-1.486;2023-05-10T06:59:38;6.25;;;2.53;;
54561;SDS011;69047;53.358;-1.486;2023-05-10T07:02:04;4.15;;;2.22;;
54561;SDS011;69047;53.358;-1.486;2023-05-10T07:04:29;5.82;;;2.35;;
54561;SDS011;69047;53.358;-1.486;2023-05-10T07:06:55;4.55;;;2.20;;
54561;SDS011;69047;53.358;-1.486;2023-05-10T07:09:20;4.03;;;2.00;;
54561;SDS011;69047;53.358;-1.486;2023-05-10T07:11:46;2.22;;;1.85;;
54561;SDS011;69047;53.358;-1.486;2023-05-10T07:14:11;3.75;;;1.92;;
54561;SDS011;69047;53.358;-1.486;2023-05-10T07:16:36;5.95;;;2.30;;
54561;SDS011;69047;53.358;-1.486;2023-05-10T07:19:02;2.90;;;2.00;;
54561;SDS011;69047;53.358;-1.486;2023-05-10T07:21:27;3.90;;;2.08;;
54561;SDS011;69047;53.358;-1.486;2023-05-10T07:23:53;3.60;;;2.17;;
54561;SDS011;69047;53.358;-1.486;2023-05-10T07:26:19;4.40;;;1.75;;
54561;SDS011;69047;53.358;-1.486;2023-05-10T07:28:45;5.05;;;1.83;;
54561;SDS011;69047;53.358;-1.486;2023-05-10T07:31:11;4.82;;;2.13;;
54561;SDS011;69047;53.358;-1.486;2023-05-10T07:33:37;5.97;;;2.05;;
54561;SDS011;69047;53.358;-1.486;2023-05-10T07:36:02;3.47;;;1.63;;
54561;SDS011;69047;53.358;-1.486;2023-05-10T07:38:28;5.68;;;1.95;;
54561;SDS011;69047;53.358;-1.486;2023-05-10T07:40:53;4.30;;;1.63;;
54561;SDS011;69047;53.358;-1.486;2023-05-10T07:43:18;4.07;;;1.98;;
54561;SDS011;69047;53.358;-1.486;2023-05-10T07:45:44;3.33;;;1.50;;
54561;SDS011;69047;53.358;-1.486;2023-05-10T07:48:10;5.43;;;1.80;;
54561;SDS011;69047;53.358;-1.486;2023-05-10T07:50:35;4.68;;;1.90;;
54561;SDS011;69047;53.358;-1.486;2023-05-10T07:53:00;4.75;;;1.90;;
54561;SDS011;69047;53.358;-1.486;2023-05-10T07:55:26;2.40;;;1.30;;
54561;SDS011;69047;53.358;-1.486;2023-05-10T07:57:51;4.10;;;1.80;;
54561;SDS011;69047;53.358;-1.486;2023-05-10T08:00:17;9.45;;;1.60;;
54561;SDS011;69047;53.358;-1.486;2023-05-10T08:02:44;3.50;;;2.13;;
54561;SDS011;69047;53.358;-1.486;2023-05-10T08:05:09;4.13;;;2.00;;
54561;SDS011;69047;53.358;-1.486;2023-05-10T08:07:35;5.82;;;2.58;;
54561;SDS011;69047;53.358;-1.486;2023-05-10T08:10:01;6.45;;;2.58;;
54561;SDS011;69047;53.358;-1.486;2023-05-10T08:12:27;7.10;;;2.85;;
54561;SDS011;69047;53.358;-1.486;2023-05-10T08:14:53;4.43;;;2.33;;
54561;SDS011;69047;53.358;-1.486;2023-05-10T08:17:18;5.45;;;2.13;;
54561;SDS011;69047;53.358;-1.486;2023-05-10T08:19:44;4.50;;;2.00;;
54561;SDS011;69047;53.358;-1.486;2023-05-10T08:22:09;3.50;;;1.85;;
54561;SDS011;69047;53.358;-1.486;2023-05-10T08:24:35;8.57;;;2.30;;
54561;SDS011;69047;53.358;-1.486;2023-05-10T08:27:03;3.80;;;2.30;;
54561;SDS011;69047;53.358;-1.486;2023-05-10T08:29:29;6.60;;;1.88;;
54561;SDS011;69047;53.358;-1.486;2023-05-10T08:31:55;5.22;;;2.10;;
54561;SDS011;69047;53.358;-1.486;2023-05-10T08:34:20;2.95;;;1.80;;
54561;SDS011;69047;53.358;-1.486;2023-05-10T08:36:45;5.57;;;1.65;;
54561;SDS011;69047;53.358;-1.486;2023-05-10T08:39:11;6.07;;;1.52;;
54561;SDS011;69047;53.358;-1.486;2023-05-10T08:41:36;3.78;;;1.70;;
54561;SDS011;69047;53.358;-1.486;2023-05-10T08:44:04;7.95;;;1.85;;
54561;SDS011;69047;53.358;-1.486;2023-05-10T08:46:30;3.50;;;2.03;;
54561;SDS011;69047;53.358;-1.486;2023-05-10T08:48:56;3.35;;;1.92;;
54561;SDS011;69047;53.358;-1.486;2023-05-10T08:51:24;2.08;;;1.40;;
54561;SDS011;69047;53.358;-1.486;2023-05-10T08:53:51;2.47;;;1.45;;
54561;SDS011;69047;53.358;-1.486;2023-05-10T08:56:17;4.72;;;1.50;;
54561;SDS011;69047;53.358;-1.486;2023-05-10T08:58:42;4.22;;;1.70;;
54561;SDS011;69047;53.358;-1.486;2023-05-10T09:01:08;1.90;;;1.40;;
54561;SDS011;69047;53.358;-1.486;2023-05-10T09:03:34;7.32;;;1.88;;
54561;SDS011;69047;53.358;-1.486;2023-05-10T09:06:00;3.17;;;1.70;;
54561;SDS011;69047;53.358;-1.486;2023-05-10T09:08:26;4.10;;;1.65;;
54561;SDS011;69047;53.358;-1.486;2023-05-10T09:10:51;3.72;;;1.52;;
54561;SDS011;69047;53.358;-1.486;2023-05-10T09:13:18;6.95;;;2.00;;
54561;SDS011;69047;53.358;-1.486;2023-05-10T09:15:44;3.25;;;1.23;;
54561;SDS011;69047;53.358;-1.486;2023-05-10T09:18:10;1.92;;;1.30;;
54561;SDS011;69047;53.358;-1.486;2023-05-10T09:20:36;7.20;;;2.03;;
54561;SDS011;69047;53.358;-1.486;2023-05-10T09:23:02;3.72;;;1.60;;
54561;SDS011;69047;53.358;-1.486;2023-05-10T09:25:28;7.28;;;1.73;;
54561;SDS011;69047;53.358;-1.486;2023-05-10T09:27:53;5.43;;;1.60;;
54561;SDS011;69047;53.358;-1.486;2023-05-10T09:30:26;3.65;;;1.40;;
54561;SDS011;69047;53.358;-1.486;2023-05-10T09:32:53;3.13;;;1.17;;
54561;SDS011;69047;53.358;-1.486;2023-05-10T09:35:20;5.22;;;1.83;;
54561;SDS011;69047;53.358;-1.486;2023-05-10T09:37:49;2.90;;;1.33;;
54561;SDS011;69047;53.358;-1.486;2023-05-10T09:40:20;5.45;;;1.75;;
54561;SDS011;69047;53.358;-1.486;2023-05-10T09:42:53;2.20;;;1.30;;
54561;SDS011;69047;53.358;-1.486;2023-05-10T09:45:27;5.00;;;1.40;;
54561;SDS011;69047;53.358;-1.486;2023-05-10T09:47:53;2.55;;;1.20;;
54561;SDS011;69047;53.358;-1.486;2023-05-10T09:50:19;2.63;;;1.20;;
54561;SDS011;69047;53.358;-1.486;2023-05-10T09:52:52;4.47;;;1.60;;
54561;SDS011;69047;53.358;-1.486;2023-05-10T09:55:20;2.67;;;1.45;;
54561;SDS011;69047;53.358;-1.486;2023-05-10T09:57:47;2.53;;;1.10;;
54561;SDS011;69047;53.358;-1.486;2023-05-10T10:00:17;3.08;;;1.20;;
54561;SDS011;69047;53.358;-1.486;2023-05-10T10:02:44;2.83;;;1.30;;
54561;SDS011;69047;53.358;-1.486;2023-05-10T10:05:11;2.42;;;1.45;;
54561;SDS011;69047;53.358;-1.486;2023-05-10T10:07:37;3.42;;;1.30;;
54561;SDS011;69047;53.358;-1.486;2023-05-10T10:10:02;2.65;;;1.38;;
54561;SDS011;69047;53.358;-1.486;2023-05-10T10:12:29;1.35;;;1.10;;
54561;SDS011;69047;53.358;-1.486;2023-05-10T10:14:55;3.10;;;1.23;;
54561;SDS011;69047;53.358;-1.486;2023-05-10T10:17:21;3.70;;;1.40;;
54561;SDS011;69047;53.358;-1.486;2023-05-10T10:19:47;5.90;;;1.10;;
54561;SDS011;69047;53.358;-1.486;2023-05-10T10:22:13;3.85;;;1.23;;
54561;SDS011;69047;53.358;-1.486;2023-05-10T10:24:39;2.65;;;1.13;;
54561;SDS011;69047;53.358;-1.486;2023-05-10T10:32:55;2.45;;;1.10;;
54561;SDS011;69047;53.358;-1.486;2023-05-10T10:35:29;4.00;;;1.35;;
54561;SDS011;69047;53.358;-1.486;2023-05-10T10:37:55;3.38;;;1.83;;
54561;SDS011;69047;53.358;-1.486;2023-05-10T10:40:32;2.63;;;0.90;;
54561;SDS011;69047;53.358;-1.486;2023-05-10T10:43:21;4.57;;;1.67;;
54561;SDS011;69047;53.358;-1.486;2023-05-10T10:48:39;3.78;;;1.35;;
54561;SDS011;69047;53.358;-1.486;2023-05-10T10:51:05;1.88;;;1.08;;
54561;SDS011;69047;53.358;-1.486;2023-05-10T10:53:31;2.35;;;1.08;;
54561;SDS011;69047;53.358;-1.486;2023-05-10T10:56:06;2.00;;;1.20;;
54561;SDS011;69047;53.358;-1.486;2023-05-10T10:58:34;2.42;;;1.27;;
54561;SDS011;69047;53.358;-1.486;2023-05-10T11:01:11;4.68;;;1.20;;
54561;SDS011;69047;53.358;-1.486;2023-05-10T11:06:30;2.15;;;1.27;;
54561;SDS011;69047;53.358;-1.486;2023-05-10T11:08:59;1.67;;;1.05;;
54561;SDS011;69047;53.358;-1.486;2023-05-10T11:11:25;5.40;;;1.25;;
54561;SDS011;69047;53.358;-1.486;2023-05-10T11:13:50;3.40;;;1.40;;
54561;SDS011;69047;53.358;-1.486;2023-05-10T11:16:17;2.90;;;1.30;;
54561;SDS011;69047;53.358;-1.486;2023-05-10T11:18:53;5.03;;;1.08;;
54561;SDS011;69047;53.358;-1.486;2023-05-10T11:21:22;4.25;;;1.10;;
54561;SDS011;69047;53.358;-1.486;2023-05-10T11:23:48;5.97;;;1.38;;
54561;SDS011;69047;53.358;-1.486;2023-05-10T11:26:15;4.10;;;1.35;;
54561;SDS011;69047;53.358;-1.486;2023-05-10T11:28:44;6.82;;;1.40;;
54561;SDS011;69047;53.358;-1.486;2023-05-10T11:31:12;2.15;;;1.05;;
54561;SDS011;69047;53.358;-1.486;2023-05-10T11:34:13;5.85;;;1.27;;
54561;SDS011;69047;53.358;-1.486;2023-05-10T11:36:36;6.95;;;1.20;;
54561;SDS011;69047;53.358;-1.486;2023-05-10T11:39:02;2.40;;;1.17;;
54561;SDS011;69047;53.358;-1.486;2023-05-10T11:41:28;2.05;;;0.90;;
54561;SDS011;69047;53.358;-1.486;2023-05-10T11:43:54;4.07;;;1.10;;
54561;SDS011;69047;53.358;-1.486;2023-05-10T11:46:22;5.10;;;1.15;;
54561;SDS011;69047;53.358;-1.486;2023-05-10T11:48:49;2.30;;;1.00;;
54561;SDS011;69047;53.358;-1.486;2023-05-10T11:51:19;2.83;;;1.00;;
54561;SDS011;69047;53.358;-1.486;2023-05-10T11:53:48;2.78;;;1.15;;
54561;SDS011;69047;53.358;-1.486;2023-05-10T11:56:15;7.75;;;1.40;;
54561;SDS011;69047;53.358;-1.486;2023-05-10T11:58:40;2.53;;;0.80;;
54561;SDS011;69047;53.358;-1.486;2023-05-10T12:01:06;6.05;;;1.60;;
54561;SDS011;69047;53.358;-1.486;2023-05-10T12:03:33;6.47;;;1.20;;
54561;SDS011;69047;53.358;-1.486;2023-05-10T12:05:59;3.63;;;1.52;;
54561;SDS011;69047;53.358;-1.486;2023-05-10T12:08:26;5.70;;;1.48;;
54561;SDS011;69047;53.358;-1.486;2023-05-10T12:11:13;7.90;;;1.35;;
54561;SDS011;69047;53.358;-1.486;2023-05-10T12:13:42;10.25;;;2.13;;
54561;SDS011;69047;53.358;-1.486;2023-05-10T12:16:22;7.00;;;2.08;;
54561;SDS011;69047;53.358;-1.486;2023-05-10T12:18:49;12.63;;;1.65;;
54561;SDS011;69047;53.358;-1.486;2023-05-10T12:21:16;2.92;;;1.30;;
54561;SDS011;69047;53.358;-1.486;2023-05-10T12:23:42;2.95;;;1.35;;
54561;SDS011;69047;53.358;-1.486;2023-05-10T12:26:10;5.95;;;1.25;;
54561;SDS011;69047;53.358;-1.486;2023-05-10T12:28:36;7.80;;;1.52;;
54561;SDS011;69047;53.358;-1.486;2023-05-10T12:31:02;3.70;;;1.27;;
54561;SDS011;69047;53.358;-1.486;2023-05-10T12:33:34;1.85;;;1.13;;
54561;SDS011;69047;53.358;-1.486;2023-05-10T12:36:10;13.25;;;1.35;;
54561;SDS011;69047;53.358;-1.486;2023-05-10T12:38:38;4.05;;;1.30;;
54561;SDS011;69047;53.358;-1.486;2023-05-10T12:41:08;3.53;;;1.10;;
54561;SDS011;69047;53.358;-1.486;2023-05-10T12:43:36;3.63;;;1.27;;
54561;SDS011;69047;53.358;-1.486;2023-05-10T12:46:09;6.15;;;0.90;;
54561;SDS011;69047;53.358;-1.486;2023-05-10T12:48:36;1.63;;;1.00;;
54561;SDS011;69047;53.358;-1.486;2023-05-10T12:51:04;1.45;;;1.08;;
54561;SDS011;69047;53.358;-1.486;2023-05-10T12:53:30;7.55;;;1.30;;
54561;SDS011;69047;53.358;-1.486;2023-05-10T12:55:55;4.80;;;1.45;;
54561;SDS011;69047;53.358;-1.486;2023-05-10T12:58:21;2.42;;;1.00;;
54561;SDS011;69047;53.358;-1.486;2023-05-10T13:00:46;3.10;;;1.00;;
54561;SDS011;69047;53.358;-1.486;2023-05-10T13:03:12;9.27;;;1.25;;
54561;SDS011;69047;53.358;-1.486;2023-05-10T13:05:37;1.35;;;1.02;;
54561;SDS011;69047;53.358;-1.486;2023-05-10T13:08:03;2.22;;;0.90;;
54561;SDS011;69047;53.358;-1.486;2023-05-10T13:10:29;6.05;;;0.70;;
54561;SDS011;69047;53.358;-1.486;2023-05-10T13:12:56;4.32;;;1.13;;
54561;SDS011;69047;53.358;-1.486;2023-05-10T13:15:22;1.67;;;0.82;;
54561;SDS011;69047;53.358;-1.486;2023-05-10T13:17:47;6.50;;;1.10;;
54561;SDS011;69047;53.358;-1.486;2023-05-10T13:20:13;2.90;;;0.93;;
54561;SDS011;69047;53.358;-1.486;2023-05-10T13:22:40;2.50;;;0.90;;
54561;SDS011;69047;53.358;-1.486;2023-05-10T13:25:07;11.27;;;1.58;;
54561;SDS011;69047;53.358;-1.486;2023-05-10T13:27:32;4.43;;;1.05;;
54561;SDS011;69047;53.358;-1.486;2023-05-10T13:29:58;3.60;;;1.05;;
54561;SDS011;69047;53.358;-1.486;2023-05-10T13:32:24;5.07;;;1.00;;
54561;SDS011;69047;53.358;-1.486;2023-05-10T13:34:50;7.97;;;1.40;;
54561;SDS011;69047;53.358;-1.486;2023-05-10T13:37:16;3.65;;;1.10;;
54561;SDS011;69047;53.358;-1.486;2023-05-10T13:39:41;1.83;;;0.70;;
54561;SDS011;69047;53.358;-1.486;2023-05-10T13:42:07;3.05;;;1.05;;
54561;SDS011;69047;53.358;-1.486;2023-05-10T13:44:33;3.10;;;1.35;;
54561;SDS011;69047;53.358;-1.486;2023-05-10T13:47:01;1.77;;;1.08;;
54561;SDS011;69047;53.358;-1.486;2023-05-10T13:49:33;3.60;;;1.10;;
54561;SDS011;69047;53.358;-1.486;2023-05-10T13:52:01;3.10;;;1.23;;
54561;SDS011;69047;53.358;-1.486;2023-05-10T13:54:32;2.28;;;0.90;;
54561;SDS011;69047;53.358;-1.486;2023-05-10T13:56:58;2.50;;;0.90;;
54561;SDS011;69047;53.358;-1.486;2023-05-10T13:59:24;2.10;;;1.00;;
54561;SDS011;69047;53.358;-1.486;2023-05-10T14:01:49;2.83;;;0.82;;
54561;SDS011;69047;53.358;-1.486;2023-05-10T14:04:14;3.97;;;1.40;;
54561;SDS011;69047;53.358;-1.486;2023-05-10T14:06:40;2.83;;;1.50;;
54561;SDS011;69047;53.358;-1.486;2023-05-10T14:09:05;4.72;;;1.40;;
54561;SDS011;69047;53.358;-1.486;2023-05-10T14:11:31;6.10;;;1.75;;
54561;SDS011;69047;53.358;-1.486;2023-05-10T14:13:56;7.53;;;1.65;;
54561;SDS011;69047;53.358;-1.486;2023-05-10T14:16:21;5.20;;;2.40;;
54561;SDS011;69047;53.358;-1.486;2023-05-10T14:18:47;6.15;;;2.83;;
54561;SDS011;69047;53.358;-1.486;2023-05-10T14:21:12;8.98;;;3.05;;
54561;SDS011;69047;53.358;-1.486;2023-05-10T14:23:38;4.47;;;2.63;;
54561;SDS011;69047;53.358;-1.486;2023-05-10T14:26:04;7.13;;;2.47;;
54561;SDS011;69047;53.358;-1.486;2023-05-10T14:28:29;5.85;;;2.38;;
54561;SDS011;69047;53.358;-1.486;2023-05-10T14:30:55;4.68;;;2.30;;
54561;SDS011;69047;53.358;-1.486;2023-05-10T14:33:20;4.63;;;2.28;;
54561;SDS011;69047;53.358;-1.486;2023-05-10T14:35:46;6.10;;;1.98;;
54561;SDS011;69047;53.358;-1.486;2023-05-10T14:38:12;5.70;;;2.03;;
54561;SDS011;69047;53.358;-1.486;2023-05-10T14:40:38;9.05;;;2.08;;
54561;SDS011;69047;53.358;-1.486;2023-05-10T14:43:03;5.63;;;1.75;;
54561;SDS011;69047;53.358;-1.486;2023-05-10T14:45:29;4.78;;;1.52;;
54561;SDS011;69047;53.358;-1.486;2023-05-10T14:47:54;6.95;;;2.15;;
54561;SDS011;69047;53.358;-1.486;2023-05-10T14:50:19;3.47;;;1.55;;
54561;SDS011;69047;53.358;-1.486;2023-05-10T14:52:45;4.22;;;1.60;;
54561;SDS011;69047;53.358;-1.486;2023-05-10T14:55:11;4.57;;;1.52;;
54561;SDS011;69047;53.358;-1.486;2023-05-10T14:57:36;7.78;;;1.90;;
54561;SDS011;69047;53.358;-1.486;2023-05-10T15:00:02;3.17;;;1.40;;
54561;SDS011;69047;53.358;-1.486;2023-05-10T15:02:28;2.72;;;1.30;;
54561;SDS011;69047;53.358;-1.486;2023-05-10T15:04:54;4.20;;;1.67;;
54561;SDS011;69047;53.358;-1.486;2023-05-10T15:07:19;2.22;;;1.30;;